Good Hope, IL

8:24 PM CST on February 25, 2017 (GMT -0600)
Macomb Municipal

Weather History for KMQB - November, 2012

Change the Weather History Date:

Tuesday, November 20, 2012

  Actual Average (KBRL) Record (KBRL)
Temperature  
Mean Temperature 46 °F -  
Max Temperature 60 °F 47 °F 76 °F (1913)
Min Temperature 32 °F 30 °F 7 °F (1914)
Degree Days  
Heating Degree Days 19    
Moisture  
Dew Point 43 °F    
Average Humidity 95    
Maximum Humidity 100    
Minimum Humidity 68    
Precipitation  
Precipitation 0.00 in - - ()
Sea Level Pressure  
Sea Level Pressure 30.14 in    
Wind  
Wind Speed 2 mph (NW)    
Max Wind Speed 10 mph    
Max Gust Speed -    
Visibility 2 miles    
Events Fog    
Averages and records for this station are not official NWS values.
T = Trace of Precipitation, MM = Missing Value Source: NWS Daily Summary

Daily Weather History Graph

Daily Weather History Graph

Search for Another Location

Airport or City:

Trip Planner

Search our weather history database for the weather conditions in past years. The results will help you decide how hot, cold, wet, or windy it might be!

Date:

Astronomy

Nov. 20, 2012 Rise Set
Actual Time 6:55 AM CST 4:41 PM CST
Civil Twilight 6:25 AM CST 5:10 PM CST
Nautical Twilight 5:52 AM CST 5:44 PM CST
Astronomical Twilight 5:19 AM CST 6:16 PM CST
Moon 12:28 PM CST (11/20) No Moon Set
Length of Visible Light 10h 45m
Length of Day
9h 45m
First Quarter, 51% of the Moon is Illuminated
Nov 20
First Quarter
Nov 28
Full
Dec 6
Last Quarter
Dec 13
New
Dec 19
First Quarter

Hourly Weather History & Observations

Time (CST) Temp. Windchill Dew Point Humidity Pressure Visibility Wind Dir Wind Speed Gust Speed Precip Events Conditions
12:16 AM 41.0 °F - 39.2 °F 93% 30.10 in 7.0 mi Calm Calm - N/A   Clear
12:36 AM 39.2 °F - 39.2 °F 100% 30.10 in 7.0 mi Calm Calm - N/A   Clear
12:59 AM 37.4 °F 34.9 °F 37.4 °F 100% 30.09 in 5.0 mi SE 3.5 mph - N/A   Clear
1:16 AM 37.4 °F 33.8 °F 37.4 °F 100% 30.09 in 4.0 mi SSE 4.6 mph - N/A   Clear
1:36 AM 39.2 °F 37.0 °F 39.2 °F 100% 30.09 in 5.0 mi South 3.5 mph - N/A   Clear
1:56 AM 39.2 °F 37.0 °F 37.4 °F 93% 30.10 in 5.0 mi SSE 3.5 mph - N/A   Clear
2:18 AM 39.2 °F 37.0 °F 37.4 °F 93% 30.09 in 4.0 mi SSE 3.5 mph - N/A   Clear
2:36 AM 37.4 °F 34.9 °F 37.4 °F 100% 30.09 in 3.0 mi SSE 3.5 mph - N/A   Clear
2:55 AM 37.4 °F - 37.4 °F 100% 30.08 in 3.0 mi Calm Calm - N/A   Clear
3:16 AM 37.4 °F - 37.4 °F 100% 30.08 in 3.0 mi Calm Calm - N/A   Clear
3:35 AM 37.4 °F - 37.4 °F 100% 30.08 in 2.5 mi Calm Calm - N/A   Clear
3:56 AM 35.6 °F - 35.6 °F 100% 30.08 in 0.5 mi Calm Calm - N/A Fog Fog
4:16 AM 35.6 °F - 35.6 °F 100% 30.08 in 0.5 mi Calm Calm - N/A Fog Fog
4:37 AM 35.6 °F - 35.6 °F 100% 30.09 in 1.5 mi Calm Calm - N/A   Mist
4:56 AM 35.6 °F - 35.6 °F 100% 30.09 in 1.0 mi Calm Calm - N/A   Mist
5:17 AM 35.6 °F - 35.6 °F 100% 30.09 in 1.0 mi Calm Calm - N/A   Mist
5:36 AM 35.6 °F - 35.6 °F 100% 30.08 in 0.2 mi Calm Calm - N/A Fog Fog
5:58 AM 35.6 °F - 35.6 °F 100% 30.10 in 0.2 mi Calm Calm - N/A Fog Fog
6:16 AM 33.8 °F - 33.8 °F 100% 30.10 in 0.2 mi Calm Calm - N/A Fog Fog
6:36 AM 33.8 °F - 33.8 °F 100% 30.10 in 0.2 mi Calm Calm - N/A Fog Fog
6:56 AM 32.0 °F - 32.0 °F 100% 30.10 in 0.2 mi Calm Calm - N/A Fog Fog
7:16 AM 32.0 °F - 32.0 °F 100% 30.11 in 0.2 mi Calm Calm - N/A Fog Fog
7:37 AM 32.0 °F - 32.0 °F 100% 30.12 in 0.2 mi Calm Calm - N/A Fog Fog
7:56 AM 33.8 °F - 33.8 °F 100% 30.13 in 0.2 mi Calm Calm - N/A Fog Fog
8:18 AM 35.6 °F - 35.6 °F 100% 30.13 in 0.2 mi Calm Calm - N/A Fog Fog
8:37 AM 39.2 °F - 39.2 °F 100% 30.13 in 0.2 mi Calm Calm - N/A Fog Fog
8:56 AM 39.2 °F - 39.2 °F 100% 30.14 in 0.2 mi Calm Calm - N/A Fog Fog
9:16 AM 42.8 °F - 42.8 °F 100% 30.14 in 0.2 mi Calm Calm - N/A Fog Fog
9:36 AM 44.6 °F - 44.6 °F 100% 30.14 in 0.2 mi Calm Calm - N/A Fog Fog
9:56 AM 46.4 °F 45.2 °F 46.4 °F 100% 30.14 in 0.2 mi North 3.5 mph - N/A Fog Fog
10:17 AM 48.2 °F - 48.2 °F 100% 30.15 in 2.5 mi NNE 4.6 mph - N/A   Overcast
10:36 AM 48.2 °F - 48.2 °F 100% 30.15 in 4.0 mi NE 3.5 mph - N/A   Mostly Cloudy
10:56 AM 50.0 °F - 50.0 °F 100% 30.14 in 5.0 mi NE 6.9 mph - N/A   Scattered Clouds
11:16 AM 51.8 °F - 51.8 °F 100% 30.13 in 5.0 mi Calm Calm - N/A   Clear
11:36 AM 53.6 °F - 50.0 °F 88% 30.13 in 7.0 mi North 3.5 mph - N/A   Clear
11:56 AM 53.6 °F - 50.0 °F 88% 30.13 in 7.0 mi Calm Calm - N/A   Clear
12:18 PM 55.4 °F - 50.0 °F 82% 30.13 in 7.0 mi Calm Calm - N/A   Clear
12:36 PM 55.4 °F - 51.8 °F 88% 30.13 in 7.0 mi Calm Calm - N/A   Scattered Clouds
12:56 PM 57.2 °F - 50.0 °F 77% 30.13 in 7.0 mi NNW 3.5 mph - N/A   Clear
1:16 PM 57.2 °F - 50.0 °F 77% 30.13 in 5.0 mi Calm Calm - N/A   Haze
1:36 PM 59.0 °F - 51.8 °F 77% 30.12 in 10.0 mi Calm Calm - N/A   Clear
1:56 PM 57.2 °F - 50.0 °F 77% 30.12 in 10.0 mi Calm Calm - N/A   Scattered Clouds
2:16 PM 60.8 °F - 50.0 °F 68% 30.11 in 7.0 mi Calm Calm - N/A   Mostly Cloudy
2:36 PM 60.8 °F - 51.8 °F 72% 30.12 in 4.0 mi NW 6.9 mph - N/A   Haze
2:56 PM 59.0 °F - 51.8 °F 77% 30.12 in 4.0 mi WNW 10.4 mph - N/A   Haze
3:16 PM 57.2 °F - 50.0 °F 77% 30.13 in 2.5 mi WNW 10.4 mph - N/A   Haze
3:36 PM 55.4 °F - 50.0 °F 82% 30.14 in 1.5 mi NW 9.2 mph - N/A   Haze
3:56 PM 55.4 °F - 50.0 °F 82% 30.15 in 1.2 mi NW 6.9 mph - N/A   Haze
4:18 PM 53.6 °F - 48.2 °F 82% 30.16 in 1.2 mi NW 9.2 mph - N/A   Mist
4:36 PM 51.8 °F - 48.2 °F 88% 30.17 in 1.2 mi NW 8.1 mph - N/A   Mist
4:58 PM 48.2 °F - 46.4 °F 93% 30.17 in 3.0 mi WNW 6.9 mph - N/A   Clear
5:16 PM 46.4 °F 42.9 °F 44.6 °F 93% 30.17 in 3.0 mi WNW 6.9 mph - N/A   Clear
5:36 PM 44.6 °F 40.2 °F 44.6 °F 100% 30.18 in 2.0 mi WNW 8.1 mph - N/A   Clear
5:56 PM 44.6 °F 39.2 °F 44.6 °F 100% 30.19 in 1.8 mi WNW 10.4 mph - N/A   Scattered Clouds
6:16 PM 46.4 °F 41.9 °F 46.4 °F 100% 30.19 in 0.5 mi NW 9.2 mph - N/A Fog Fog
6:38 PM 46.4 °F 41.9 °F 46.4 °F 100% 30.20 in 0.2 mi WNW 9.2 mph - N/A Fog Fog
6:56 PM 46.4 °F 43.5 °F 46.4 °F 100% 30.20 in 0.2 mi WNW 5.8 mph - N/A Fog Fog
7:16 PM 46.4 °F 42.9 °F 46.4 °F 100% 30.20 in 0.2 mi WNW 6.9 mph - N/A Fog Fog
7:36 PM 46.4 °F 41.9 °F 46.4 °F 100% 30.21 in 0.2 mi NW 9.2 mph - N/A Fog Fog
7:57 PM 46.4 °F 42.9 °F 46.4 °F 100% 30.21 in 0.2 mi NW 6.9 mph - N/A Fog Fog
8:16 PM 46.4 °F 42.9 °F 46.4 °F 100% 30.21 in 0.2 mi NW 6.9 mph - N/A Fog Fog
8:36 PM 44.6 °F 41.4 °F 44.6 °F 100% 30.21 in 0.2 mi NNW 5.8 mph - N/A Fog Fog
8:56 PM 44.6 °F 40.7 °F 44.6 °F 100% 30.22 in 0.2 mi NW 6.9 mph - N/A Fog Fog
9:16 PM 44.6 °F 43.1 °F 44.6 °F 100% 30.23 in 0.2 mi WNW 3.5 mph - N/A Fog Fog
9:36 PM 44.6 °F 42.2 °F 44.6 °F 100% 30.23 in 0.2 mi West 4.6 mph - N/A Fog Fog
9:56 PM 44.6 °F 43.1 °F 44.6 °F 100% 30.22 in 0.2 mi WNW 3.5 mph - N/A Fog Fog
10:17 PM 42.8 °F - 42.8 °F 100% 30.22 in 0.2 mi Calm Calm - N/A Fog Fog
10:36 PM 42.8 °F - 42.8 °F 100% 30.23 in 0.2 mi Calm Calm - N/A Fog Fog
10:56 PM 42.8 °F - 42.8 °F 100% 30.22 in 0.2 mi Calm Calm - N/A Fog Fog
11:16 PM 42.8 °F - 42.8 °F 100% 30.22 in 0.2 mi Calm Calm - N/A Fog Fog
11:38 PM 42.8 °F - 42.8 °F 100% 30.22 in 0.2 mi Calm Calm - N/A Fog Fog
11:56 PM 42.8 °F - 42.8 °F 100% 30.21 in 0.2 mi Calm Calm - N/A Fog Fog